sensor_id;sensor_type;location;lat;lon;timestamp;pressure;altitude;pressure_sealevel;temperature;humidity
69058;BME280;56128;37.534;-122.308;2024-03-08T00:01:23;101507.56;;;14.22;100.00
69058;BME280;56128;37.534;-122.308;2024-03-08T00:03:49;101513.91;;;14.21;100.00
69058;BME280;56128;37.534;-122.308;2024-03-08T00:06:17;101510.75;;;14.16;100.00
69058;BME280;56128;37.534;-122.308;2024-03-08T00:08:43;101512.19;;;14.08;100.00
69058;BME280;56128;37.534;-122.308;2024-03-08T00:11:09;101525.41;;;14.11;100.00
69058;BME280;56128;37.534;-122.308;2024-03-08T00:13:35;101523.31;;;14.15;100.00
69058;BME280;56128;37.534;-122.308;2024-03-08T00:16:02;101516.84;;;14.06;100.00
69058;BME280;56128;37.534;-122.308;2024-03-08T00:18:28;101524.41;;;14.01;100.00
69058;BME280;56128;37.534;-122.308;2024-03-08T00:20:55;101521.97;;;13.98;100.00
69058;BME280;56128;37.534;-122.308;2024-03-08T00:23:22;101526.13;;;13.91;100.00
69058;BME280;56128;37.534;-122.308;2024-03-08T00:25:49;101520.47;;;13.83;100.00
69058;BME280;56128;37.534;-122.308;2024-03-08T00:28:15;101523.63;;;13.76;100.00
69058;BME280;56128;37.534;-122.308;2024-03-08T00:30:42;101525.34;;;13.77;100.00
69058;BME280;56128;37.534;-122.308;2024-03-08T00:33:08;101521.94;;;13.64;100.00
69058;BME280;56128;37.534;-122.308;2024-03-08T00:35:35;101527.53;;;13.61;100.00
69058;BME280;56128;37.534;-122.308;2024-03-08T00:38:01;101529.94;;;13.53;100.00
69058;BME280;56128;37.534;-122.308;2024-03-08T00:40:28;101539.34;;;13.47;100.00
69058;BME280;56128;37.534;-122.308;2024-03-08T00:42:54;101544.97;;;13.44;100.00
69058;BME280;56128;37.534;-122.308;2024-03-08T00:45:20;101549.19;;;13.35;100.00
69058;BME280;56128;37.534;-122.308;2024-03-08T00:47:49;101548.63;;;13.30;100.00
69058;BME280;56128;37.534;-122.308;2024-03-08T00:50:15;101544.34;;;13.27;100.00
69058;BME280;56128;37.534;-122.308;2024-03-08T00:52:41;101555.34;;;13.24;100.00
69058;BME280;56128;37.534;-122.308;2024-03-08T00:55:08;101562.66;;;13.22;100.00
69058;BME280;56128;37.534;-122.308;2024-03-08T00:57:36;101563.13;;;13.16;100.00
69058;BME280;56128;37.534;-122.308;2024-03-08T01:00:06;101562.47;;;13.12;100.00
69058;BME280;56128;37.534;-122.308;2024-03-08T01:02:38;101573.47;;;13.09;100.00
69058;BME280;56128;37.534;-122.308;2024-03-08T01:05:05;101583.47;;;13.07;100.00
69058;BME280;56128;37.534;-122.308;2024-03-08T01:07:35;101577.56;;;13.02;100.00
69058;BME280;56128;37.534;-122.308;2024-03-08T01:10:05;101574.88;;;13.02;100.00
69058;BME280;56128;37.534;-122.308;2024-03-08T01:12:38;101586.44;;;12.91;100.00
69058;BME280;56128;37.534;-122.308;2024-03-08T01:15:05;101583.44;;;12.83;100.00
69058;BME280;56128;37.534;-122.308;2024-03-08T01:17:32;101590.09;;;12.77;100.00
69058;BME280;56128;37.534;-122.308;2024-03-08T01:20:02;101589.50;;;12.74;100.00
69058;BME280;56128;37.534;-122.308;2024-03-08T01:22:30;101594.66;;;12.64;100.00
69058;BME280;56128;37.534;-122.308;2024-03-08T01:24:57;101594.03;;;12.60;100.00
69058;BME280;56128;37.534;-122.308;2024-03-08T01:27:24;101589.09;;;12.54;100.00
69058;BME280;56128;37.534;-122.308;2024-03-08T01:29:51;101590.59;;;12.45;100.00
69058;BME280;56128;37.534;-122.308;2024-03-08T01:32:18;101589.44;;;12.37;100.00
69058;BME280;56128;37.534;-122.308;2024-03-08T01:34:46;101588.25;;;12.28;100.00
69058;BME280;56128;37.534;-122.308;2024-03-08T01:37:13;101604.59;;;12.25;100.00
69058;BME280;56128;37.534;-122.308;2024-03-08T01:39:40;101604.13;;;12.18;100.00
69058;BME280;56128;37.534;-122.308;2024-03-08T01:42:10;101605.88;;;12.06;100.00
69058;BME280;56128;37.534;-122.308;2024-03-08T01:44:39;101613.75;;;11.95;100.00
69058;BME280;56128;37.534;-122.308;2024-03-08T01:47:06;101607.09;;;11.88;100.00
69058;BME280;56128;37.534;-122.308;2024-03-08T01:49:33;101611.16;;;11.80;100.00
69058;BME280;56128;37.534;-122.308;2024-03-08T01:52:00;101615.31;;;11.72;100.00
69058;BME280;56128;37.534;-122.308;2024-03-08T01:54:27;101615.72;;;11.65;100.00
69058;BME280;56128;37.534;-122.308;2024-03-08T01:56:57;101616.25;;;11.58;100.00
69058;BME280;56128;37.534;-122.308;2024-03-08T01:59:25;101616.66;;;11.51;100.00
69058;BME280;56128;37.534;-122.308;2024-03-08T02:02:00;101607.63;;;11.40;100.00
69058;BME280;56128;37.534;-122.308;2024-03-08T02:04:28;101613.88;;;11.26;100.00
69058;BME280;56128;37.534;-122.308;2024-03-08T02:06:58;101620.19;;;11.25;100.00
69058;BME280;56128;37.534;-122.308;2024-03-08T02:09:26;101623.47;;;11.15;100.00
69058;BME280;56128;37.534;-122.308;2024-03-08T02:11:57;101619.28;;;11.11;100.00
69058;BME280;56128;37.534;-122.308;2024-03-08T02:14:27;101619.22;;;10.98;100.00
69058;BME280;56128;37.534;-122.308;2024-03-08T02:17:03;101619.88;;;10.87;100.00
69058;BME280;56128;37.534;-122.308;2024-03-08T02:19:31;101631.94;;;10.80;100.00
69058;BME280;56128;37.534;-122.308;2024-03-08T02:21:59;101629.66;;;10.74;100.00
69058;BME280;56128;37.534;-122.308;2024-03-08T02:24:31;101629.28;;;10.66;100.00
69058;BME280;56128;37.534;-122.308;2024-03-08T02:26:59;101636.94;;;10.58;100.00
69058;BME280;56128;37.534;-122.308;2024-03-08T02:29:28;101639.22;;;10.49;100.00
69058;BME280;56128;37.534;-122.308;2024-03-08T02:31:55;101641.50;;;10.41;100.00
69058;BME280;56128;37.534;-122.308;2024-03-08T02:34:23;101638.25;;;10.36;100.00
69058;BME280;56128;37.534;-122.308;2024-03-08T02:36:50;101651.19;;;10.28;100.00
69058;BME280;56128;37.534;-122.308;2024-03-08T02:39:17;101644.53;;;10.20;100.00
69058;BME280;56128;37.534;-122.308;2024-03-08T02:41:48;101663.72;;;10.13;100.00
69058;BME280;56128;37.534;-122.308;2024-03-08T02:44:15;101665.03;;;10.05;100.00
69058;BME280;56128;37.534;-122.308;2024-03-08T02:46:42;101661.00;;;9.98;100.00
69058;BME280;56128;37.534;-122.308;2024-03-08T02:49:09;101662.41;;;9.89;100.00
69058;BME280;56128;37.534;-122.308;2024-03-08T02:51:37;101673.63;;;9.80;100.00
69058;BME280;56128;37.534;-122.308;2024-03-08T02:54:05;101669.41;;;9.76;100.00
69058;BME280;56128;37.534;-122.308;2024-03-08T02:56:34;101676.06;;;9.69;100.00
69058;BME280;56128;37.534;-122.308;2024-03-08T02:59:01;101678.13;;;9.64;100.00
69058;BME280;56128;37.534;-122.308;2024-03-08T03:01:29;101669.50;;;9.58;100.00
69058;BME280;56128;37.534;-122.308;2024-03-08T03:03:56;101677.97;;;9.51;100.00
69058;BME280;56128;37.534;-122.308;2024-03-08T03:06:24;101675.59;;;9.46;100.00
69058;BME280;56128;37.534;-122.308;2024-03-08T03:08:54;101681.09;;;9.43;100.00
69058;BME280;56128;37.534;-122.308;2024-03-08T03:11:23;101684.91;;;9.39;100.00
69058;BME280;56128;37.534;-122.308;2024-03-08T03:13:53;101686.97;;;9.34;100.00
69058;BME280;56128;37.534;-122.308;2024-03-08T03:16:22;101688.94;;;9.30;100.00
69058;BME280;56128;37.534;-122.308;2024-03-08T03:18:50;101694.53;;;9.25;100.00
69058;BME280;56128;37.534;-122.308;2024-03-08T03:21:17;101702.72;;;9.22;100.00
69058;BME280;56128;37.534;-122.308;2024-03-08T03:23:44;101696.00;;;9.15;100.00
69058;BME280;56128;37.534;-122.308;2024-03-08T03:26:11;101700.56;;;9.13;100.00
69058;BME280;56128;37.534;-122.308;2024-03-08T03:28:38;101702.53;;;9.09;100.00
69058;BME280;56128;37.534;-122.308;2024-03-08T03:31:08;101704.50;;;9.06;100.00
69058;BME280;56128;37.534;-122.308;2024-03-08T03:33:43;101703.13;;;8.99;100.00
69058;BME280;56128;37.534;-122.308;2024-03-08T03:36:10;101702.44;;;8.95;100.00
69058;BME280;56128;37.534;-122.308;2024-03-08T03:38:38;101706.28;;;8.89;100.00
69058;BME280;56128;37.534;-122.308;2024-03-08T03:41:05;101703.94;;;8.83;100.00
69058;BME280;56128;37.534;-122.308;2024-03-08T03:43:37;101706.00;;;8.78;100.00
69058;BME280;56128;37.534;-122.308;2024-03-08T03:46:08;101710.63;;;8.74;100.00
69058;BME280;56128;37.534;-122.308;2024-03-08T03:48:36;101710.97;;;8.68;100.00
69058;BME280;56128;37.534;-122.308;2024-03-08T03:51:03;101725.31;;;8.66;100.00
69058;BME280;56128;37.534;-122.308;2024-03-08T03:53:30;101724.72;;;8.60;100.00
69058;BME280;56128;37.534;-122.308;2024-03-08T03:55:56;101722.13;;;8.59;100.00
69058;BME280;56128;37.534;-122.308;2024-03-08T03:58:23;101722.34;;;8.54;100.00
69058;BME280;56128;37.534;-122.308;2024-03-08T04:00:50;101720.88;;;8.49;100.00
69058;BME280;56128;37.534;-122.308;2024-03-08T04:03:17;101724.63;;;8.44;100.00
69058;BME280;56128;37.534;-122.308;2024-03-08T04:05:44;101727.44;;;8.41;100.00
69058;BME280;56128;37.534;-122.308;2024-03-08T04:08:13;101720.66;;;8.36;100.00
69058;BME280;56128;37.534;-122.308;2024-03-08T04:10:40;101728.88;;;8.31;100.00
69058;BME280;56128;37.534;-122.308;2024-03-08T04:13:09;101738.03;;;8.25;100.00
69058;BME280;56128;37.534;-122.308;2024-03-08T04:15:36;101745.19;;;8.25;100.00
69058;BME280;56128;37.534;-122.308;2024-03-08T04:18:04;101745.41;;;8.20;100.00
69058;BME280;56128;37.534;-122.308;2024-03-08T04:20:31;101743.75;;;8.18;100.00
69058;BME280;56128;37.534;-122.308;2024-03-08T04:22:58;101752.69;;;8.17;100.00
69058;BME280;56128;37.534;-122.308;2024-03-08T04:25:24;101751.00;;;8.16;100.00
69058;BME280;56128;37.534;-122.308;2024-03-08T04:27:50;101754.66;;;8.13;100.00
69058;BME280;56128;37.534;-122.308;2024-03-08T04:30:18;101760.06;;;8.11;100.00
69058;BME280;56128;37.534;-122.308;2024-03-08T04:32:44;101767.34;;;8.08;100.00
69058;BME280;56128;37.534;-122.308;2024-03-08T04:35:10;101769.25;;;8.06;100.00
69058;BME280;56128;37.534;-122.308;2024-03-08T04:37:38;101774.78;;;8.01;100.00
69058;BME280;56128;37.534;-122.308;2024-03-08T04:40:05;101777.53;;;8.00;100.00
69058;BME280;56128;37.534;-122.308;2024-03-08T04:42:32;101775.00;;;7.96;100.00
69058;BME280;56128;37.534;-122.308;2024-03-08T04:44:59;101780.50;;;7.93;100.00
69058;BME280;56128;37.534;-122.308;2024-03-08T04:47:25;101785.13;;;7.90;100.00
69058;BME280;56128;37.534;-122.308;2024-03-08T04:49:51;101785.50;;;7.82;100.00
69058;BME280;56128;37.534;-122.308;2024-03-08T04:52:17;101792.69;;;7.80;100.00
69058;BME280;56128;37.534;-122.308;2024-03-08T04:54:44;101789.22;;;7.78;100.00
69058;BME280;56128;37.534;-122.308;2024-03-08T04:57:13;101799.31;;;7.71;100.00
69058;BME280;56128;37.534;-122.308;2024-03-08T04:59:39;101804.09;;;7.64;100.00
69058;BME280;56128;37.534;-122.308;2024-03-08T05:02:05;101805.16;;;7.60;100.00
69058;BME280;56128;37.534;-122.308;2024-03-08T05:04:33;101813.16;;;7.60;100.00
69058;BME280;56128;37.534;-122.308;2024-03-08T05:06:59;101811.63;;;7.55;100.00
69058;BME280;56128;37.534;-122.308;2024-03-08T05:09:27;101808.13;;;7.54;100.00
69058;BME280;56128;37.534;-122.308;2024-03-08T05:11:57;101818.91;;;7.51;100.00
69058;BME280;56128;37.534;-122.308;2024-03-08T05:14:25;101819.19;;;7.45;100.00
69058;BME280;56128;37.534;-122.308;2024-03-08T05:16:51;101812.13;;;7.44;100.00
69058;BME280;56128;37.534;-122.308;2024-03-08T05:19:19;101831.00;;;7.39;100.00
69058;BME280;56128;37.534;-122.308;2024-03-08T05:21:49;101833.69;;;7.38;100.00
69058;BME280;56128;37.534;-122.308;2024-03-08T05:24:16;101832.94;;;7.36;100.00
69058;BME280;56128;37.534;-122.308;2024-03-08T05:26:43;101835.88;;;7.29;100.00
69058;BME280;56128;37.534;-122.308;2024-03-08T05:29:10;101838.72;;;7.25;100.00
69058;BME280;56128;37.534;-122.308;2024-03-08T05:31:48;101841.75;;;7.17;100.00
69058;BME280;56128;37.534;-122.308;2024-03-08T05:34:18;101842.59;;;7.18;100.00
69058;BME280;56128;37.534;-122.308;2024-03-08T05:36:45;101835.84;;;7.10;100.00
69058;BME280;56128;37.534;-122.308;2024-03-08T05:39:13;101838.78;;;7.04;100.00
69058;BME280;56128;37.534;-122.308;2024-03-08T05:41:39;101844.13;;;7.03;100.00
69058;BME280;56128;37.534;-122.308;2024-03-08T05:44:06;101846.03;;;7.01;100.00
69058;BME280;56128;37.534;-122.308;2024-03-08T05:46:34;101846.13;;;6.97;100.00
69058;BME280;56128;37.534;-122.308;2024-03-08T05:49:02;101843.63;;;6.94;100.00
69058;BME280;56128;37.534;-122.308;2024-03-08T05:51:35;101852.53;;;6.93;100.00
69058;BME280;56128;37.534;-122.308;2024-03-08T05:54:06;101846.28;;;6.94;100.00
69058;BME280;56128;37.534;-122.308;2024-03-08T05:56:32;101846.41;;;6.91;100.00
69058;BME280;56128;37.534;-122.308;2024-03-08T05:58:59;101844.69;;;6.90;100.00
69058;BME280;56128;37.534;-122.308;2024-03-08T06:01:26;101849.06;;;6.91;100.00
69058;BME280;56128;37.534;-122.308;2024-03-08T06:03:56;101844.81;;;6.87;100.00
69058;BME280;56128;37.534;-122.308;2024-03-08T06:06:26;101847.63;;;6.84;100.00
69058;BME280;56128;37.534;-122.308;2024-03-08T06:08:52;101850.28;;;6.84;100.00
69058;BME280;56128;37.534;-122.308;2024-03-08T06:11:19;101840.75;;;6.78;100.00
69058;BME280;56128;37.534;-122.308;2024-03-08T06:13:46;101833.69;;;6.77;100.00
69058;BME280;56128;37.534;-122.308;2024-03-08T06:16:13;101837.34;;;6.75;100.00
69058;BME280;56128;37.534;-122.308;2024-03-08T06:18:39;101833.84;;;6.74;100.00
69058;BME280;56128;37.534;-122.308;2024-03-08T06:21:07;101836.50;;;6.74;100.00
69058;BME280;56128;37.534;-122.308;2024-03-08T06:23:35;101841.91;;;6.73;100.00
69058;BME280;56128;37.534;-122.308;2024-03-08T06:26:07;101836.59;;;6.73;100.00
69058;BME280;56128;37.534;-122.308;2024-03-08T06:28:34;101836.69;;;6.70;100.00
69058;BME280;56128;37.534;-122.308;2024-03-08T06:31:01;101834.97;;;6.69;100.00
69058;BME280;56128;37.534;-122.308;2024-03-08T06:33:28;101834.19;;;6.66;100.00
69058;BME280;56128;37.534;-122.308;2024-03-08T06:35:54;101839.63;;;6.63;100.00
69058;BME280;56128;37.534;-122.308;2024-03-08T06:38:24;101839.75;;;6.60;100.00
69058;BME280;56128;37.534;-122.308;2024-03-08T06:40:51;101840.75;;;6.58;100.00
69058;BME280;56128;37.534;-122.308;2024-03-08T06:43:18;101835.47;;;6.56;100.00
69058;BME280;56128;37.534;-122.308;2024-03-08T06:45:47;101833.78;;;6.55;100.00
69058;BME280;56128;37.534;-122.308;2024-03-08T06:48:18;101836.44;;;6.55;100.00
69058;BME280;56128;37.534;-122.308;2024-03-08T06:50:46;101836.47;;;6.54;100.00
69058;BME280;56128;37.534;-122.308;2024-03-08T06:53:15;101836.69;;;6.49;100.00
69058;BME280;56128;37.534;-122.308;2024-03-08T06:55:42;101835.03;;;6.46;100.00
69058;BME280;56128;37.534;-122.308;2024-03-08T06:58:10;101836.88;;;6.44;100.00
69058;BME280;56128;37.534;-122.308;2024-03-08T07:00:37;101838.69;;;6.44;100.00
69058;BME280;56128;37.534;-122.308;2024-03-08T07:03:03;101843.19;;;6.42;100.00
69058;BME280;56128;37.534;-122.308;2024-03-08T07:05:32;101843.34;;;6.37;100.00
69058;BME280;56128;37.534;-122.308;2024-03-08T07:07:58;101835.47;;;6.36;100.00
69058;BME280;56128;37.534;-122.308;2024-03-08T07:10:24;101836.56;;;6.30;100.00
69058;BME280;56128;37.534;-122.308;2024-03-08T07:12:51;101842.94;;;6.26;100.00
69058;BME280;56128;37.534;-122.308;2024-03-08T07:15:21;101841.34;;;6.22;100.00
69058;BME280;56128;37.534;-122.308;2024-03-08T07:17:49;101843.19;;;6.20;100.00
69058;BME280;56128;37.534;-122.308;2024-03-08T07:20:18;101847.75;;;6.16;100.00
69058;BME280;56128;37.534;-122.308;2024-03-08T07:22:48;101844.31;;;6.14;100.00
69058;BME280;56128;37.534;-122.308;2024-03-08T07:25:16;101840.00;;;6.11;100.00
69058;BME280;56128;37.534;-122.308;2024-03-08T07:27:52;101843.63;;;6.09;100.00
69058;BME280;56128;37.534;-122.308;2024-03-08T07:30:19;101848.13;;;6.07;100.00
69058;BME280;56128;37.534;-122.308;2024-03-08T07:33:05;101837.69;;;6.02;100.00
69058;BME280;56128;37.534;-122.308;2024-03-08T07:35:33;101844.88;;;6.00;100.00
69058;BME280;56128;37.534;-122.308;2024-03-08T07:38:10;101845.63;;;6.04;100.00
69058;BME280;56128;37.534;-122.308;2024-03-08T07:40:41;101836.00;;;5.99;100.00
69058;BME280;56128;37.534;-122.308;2024-03-08T07:43:10;101838.66;;;5.99;100.00
69058;BME280;56128;37.534;-122.308;2024-03-08T07:45:38;101842.28;;;5.97;100.00
69058;BME280;56128;37.534;-122.308;2024-03-08T07:48:04;101843.19;;;5.96;100.00
69058;BME280;56128;37.534;-122.308;2024-03-08T07:50:38;101837.22;;;5.91;100.00
69058;BME280;56128;37.534;-122.308;2024-03-08T07:53:05;101843.41;;;5.91;100.00
69058;BME280;56128;37.534;-122.308;2024-03-08T07:55:35;101836.34;;;5.90;100.00
69058;BME280;56128;37.534;-122.308;2024-03-08T07:58:02;101842.59;;;5.89;100.00
69058;BME280;56128;37.534;-122.308;2024-03-08T08:00:31;101847.16;;;5.85;100.00
69058;BME280;56128;37.534;-122.308;2024-03-08T08:02:57;101844.63;;;5.82;100.00
69058;BME280;56128;37.534;-122.308;2024-03-08T08:05:24;101845.47;;;5.83;100.00
69058;BME280;56128;37.534;-122.308;2024-03-08T08:07:51;101857.94;;;5.81;100.00
69058;BME280;56128;37.534;-122.308;2024-03-08T08:10:18;101851.84;;;5.79;100.00
69058;BME280;56128;37.534;-122.308;2024-03-08T08:12:48;101856.34;;;5.77;100.00
69058;BME280;56128;37.534;-122.308;2024-03-08T08:15:15;101858.84;;;5.81;100.00
69058;BME280;56128;37.534;-122.308;2024-03-08T08:17:42;101850.94;;;5.80;100.00
69058;BME280;56128;37.534;-122.308;2024-03-08T08:20:10;101853.53;;;5.81;100.00
69058;BME280;56128;37.534;-122.308;2024-03-08T08:22:38;101860.56;;;5.82;100.00
69058;BME280;56128;37.534;-122.308;2024-03-08T08:25:06;101863.25;;;5.81;100.00
69058;BME280;56128;37.534;-122.308;2024-03-08T08:27:33;101863.31;;;5.79;100.00
69058;BME280;56128;37.534;-122.308;2024-03-08T08:29:59;101861.66;;;5.77;100.00
69058;BME280;56128;37.534;-122.308;2024-03-08T08:32:26;101863.63;;;5.72;100.00
69058;BME280;56128;37.534;-122.308;2024-03-08T08:34:52;101871.59;;;5.72;100.00
69058;BME280;56128;37.534;-122.308;2024-03-08T08:37:18;101869.06;;;5.68;100.00
69058;BME280;56128;37.534;-122.308;2024-03-08T08:39:44;101879.78;;;5.65;100.00
69058;BME280;56128;37.534;-122.308;2024-03-08T08:42:11;101879.84;;;5.64;100.00
69058;BME280;56128;37.534;-122.308;2024-03-08T08:44:37;101876.38;;;5.62;100.00
69058;BME280;56128;37.534;-122.308;2024-03-08T08:47:03;101880.91;;;5.60;100.00
69058;BME280;56128;37.534;-122.308;2024-03-08T08:49:29;101874.72;;;5.59;100.00
69058;BME280;56128;37.534;-122.308;2024-03-08T08:51:56;101875.63;;;5.58;100.00
69058;BME280;56128;37.534;-122.308;2024-03-08T08:54:24;101874.72;;;5.59;100.00
69058;BME280;56128;37.534;-122.308;2024-03-08T08:56:51;101883.59;;;5.58;100.00
69058;BME280;56128;37.534;-122.308;2024-03-08T08:59:17;101877.53;;;5.55;100.00
69058;BME280;56128;37.534;-122.308;2024-03-08T09:01:45;101881.97;;;5.54;100.00
69058;BME280;56128;37.534;-122.308;2024-03-08T09:04:15;101881.13;;;5.53;100.00
69058;BME280;56128;37.534;-122.308;2024-03-08T09:06:42;101881.22;;;5.50;100.00
69058;BME280;56128;37.534;-122.308;2024-03-08T09:09:09;101886.59;;;5.49;100.00
69058;BME280;56128;37.534;-122.308;2024-03-08T09:11:37;101883.13;;;5.47;100.00
69058;BME280;56128;37.534;-122.308;2024-03-08T09:14:07;101876.06;;;5.46;100.00
69058;BME280;56128;37.534;-122.308;2024-03-08T09:16:34;101884.03;;;5.46;100.00
69058;BME280;56128;37.534;-122.308;2024-03-08T09:19:00;101879.69;;;5.45;100.00
69058;BME280;56128;37.534;-122.308;2024-03-08T09:21:27;101879.00;;;5.40;100.00
69058;BME280;56128;37.534;-122.308;2024-03-08T09:23:53;101881.66;;;5.38;100.00
69058;BME280;56128;37.534;-122.308;2024-03-08T09:26:19;101877.28;;;5.37;100.00
69058;BME280;56128;37.534;-122.308;2024-03-08T09:28:46;101883.53;;;5.36;100.00
69058;BME280;56128;37.534;-122.308;2024-03-08T09:31:12;101877.41;;;5.34;100.00
69058;BME280;56128;37.534;-122.308;2024-03-08T09:33:38;101883.75;;;5.30;100.00
69058;BME280;56128;37.534;-122.308;2024-03-08T09:36:08;101882.88;;;5.29;100.00
69058;BME280;56128;37.534;-122.308;2024-03-08T09:38:34;101886.56;;;5.25;100.00
69058;BME280;56128;37.534;-122.308;2024-03-08T09:41:01;101891.88;;;5.25;100.00
69058;BME280;56128;37.534;-122.308;2024-03-08T09:43:30;101890.06;;;5.26;100.00
69058;BME280;56128;37.534;-122.308;2024-03-08T09:45:57;101897.25;;;5.24;100.00
69058;BME280;56128;37.534;-122.308;2024-03-08T09:48:25;101895.44;;;5.24;100.00
69058;BME280;56128;37.534;-122.308;2024-03-08T09:50:52;101890.13;;;5.24;100.00
69058;BME280;56128;37.534;-122.308;2024-03-08T09:53:20;101895.50;;;5.23;100.00
69058;BME280;56128;37.534;-122.308;2024-03-08T09:55:48;101891.09;;;5.22;100.00
69058;BME280;56128;37.534;-122.308;2024-03-08T09:58:15;101882.28;;;5.21;100.00
69058;BME280;56128;37.534;-122.308;2024-03-08T10:00:52;101887.66;;;5.19;100.00
69058;BME280;56128;37.534;-122.308;2024-03-08T10:03:22;101882.28;;;5.21;100.00
69058;BME280;56128;37.534;-122.308;2024-03-08T10:05:48;101877.97;;;5.18;100.00
69058;BME280;56128;37.534;-122.308;2024-03-08T10:08:14;101889.38;;;5.20;100.00
69058;BME280;56128;37.534;-122.308;2024-03-08T10:10:40;101890.25;;;5.21;100.00
69058;BME280;56128;37.534;-122.308;2024-03-08T10:13:08;101889.38;;;5.20;100.00
69058;BME280;56128;37.534;-122.308;2024-03-08T10:15:36;101884.06;;;5.20;100.00
69058;BME280;56128;37.534;-122.308;2024-03-08T10:18:02;101886.72;;;5.20;100.00
69058;BME280;56128;37.534;-122.308;2024-03-08T10:20:30;101873.50;;;5.19;100.00
69058;BME280;56128;37.534;-122.308;2024-03-08T10:23:03;101875.19;;;5.22;100.00
69058;BME280;56128;37.534;-122.308;2024-03-08T10:25:31;101873.34;;;5.24;100.00
69058;BME280;56128;37.534;-122.308;2024-03-08T10:27:57;101874.22;;;5.24;100.00
69058;BME280;56128;37.534;-122.308;2024-03-08T10:30:24;101881.38;;;5.22;100.00
69058;BME280;56128;37.534;-122.308;2024-03-08T10:32:50;101883.22;;;5.20;100.00
69058;BME280;56128;37.534;-122.308;2024-03-08T10:35:17;101876.22;;;5.17;100.00
69058;BME280;56128;37.534;-122.308;2024-03-08T10:37:51;101882.44;;;5.16;100.00
69058;BME280;56128;37.534;-122.308;2024-03-08T10:40:27;101879.88;;;5.15;100.00
69058;BME280;56128;37.534;-122.308;2024-03-08T10:42:55;101878.13;;;5.14;100.00
69058;BME280;56128;37.534;-122.308;2024-03-08T10:45:38;101878.25;;;5.11;100.00
69058;BME280;56128;37.534;-122.308;2024-03-08T10:48:26;101883.56;;;5.11;100.00
69058;BME280;56128;37.534;-122.308;2024-03-08T10:51:04;101878.34;;;5.08;100.00
69058;BME280;56128;37.534;-122.308;2024-03-08T10:53:31;101873.16;;;5.04;100.00
69058;BME280;56128;37.534;-122.308;2024-03-08T10:55:58;101874.97;;;5.02;100.00
69058;BME280;56128;37.534;-122.308;2024-03-08T10:58:27;101871.41;;;5.03;100.00
69058;BME280;56128;37.534;-122.308;2024-03-08T11:00:55;101876.81;;;5.00;100.00
69058;BME280;56128;37.534;-122.308;2024-03-08T11:06:08;101878.66;;;4.98;100.00
69058;BME280;56128;37.534;-122.308;2024-03-08T11:08:37;101877.84;;;4.96;100.00
69058;BME280;56128;37.534;-122.308;2024-03-08T11:11:04;101877.03;;;4.94;100.00
69058;BME280;56128;37.534;-122.308;2024-03-08T11:13:39;101875.41;;;4.90;100.00
69058;BME280;56128;37.534;-122.308;2024-03-08T11:19:00;101887.97;;;4.85;100.00
69058;BME280;56128;37.534;-122.308;2024-03-08T11:21:36;101879.25;;;4.81;100.00
69058;BME280;56128;37.534;-122.308;2024-03-08T11:24:11;101889.00;;;4.81;100.00
69058;BME280;56128;37.534;-122.308;2024-03-08T11:26:39;101883.84;;;4.76;100.00
69058;BME280;56128;37.534;-122.308;2024-03-08T11:32:08;101884.03;;;4.70;100.00
69058;BME280;56128;37.534;-122.308;2024-03-08T11:34:40;101890.31;;;4.67;100.00
69058;BME280;56128;37.534;-122.308;2024-03-08T11:37:18;101888.63;;;4.65;100.00
69058;BME280;56128;37.534;-122.308;2024-03-08T11:39:51;101889.50;;;4.65;100.00
69058;BME280;56128;37.534;-122.308;2024-03-08T11:42:18;101886.97;;;4.62;100.00
69058;BME280;56128;37.534;-122.308;2024-03-08T11:44:46;101887.94;;;4.60;100.00
69058;BME280;56128;37.534;-122.308;2024-03-08T11:47:14;101893.28;;;4.58;100.00
69058;BME280;56128;37.534;-122.308;2024-03-08T11:49:42;101893.28;;;4.58;100.00
69058;BME280;56128;37.534;-122.308;2024-03-08T11:52:17;101902.94;;;4.59;100.00
69058;BME280;56128;37.534;-122.308;2024-03-08T11:55:02;101903.00;;;4.58;100.00
69058;BME280;56128;37.534;-122.308;2024-03-08T11:57:28;101910.91;;;4.59;100.00
69058;BME280;56128;37.534;-122.308;2024-03-08T11:59:55;101911.72;;;4.61;100.00
69058;BME280;56128;37.534;-122.308;2024-03-08T12:02:32;101917.94;;;4.60;100.00
69058;BME280;56128;37.534;-122.308;2024-03-08T12:05:01;101913.56;;;4.59;100.00
69058;BME280;56128;37.534;-122.308;2024-03-08T12:07:42;101925.09;;;4.58;100.00
69058;BME280;56128;37.534;-122.308;2024-03-08T12:10:19;101927.75;;;4.58;100.00
69058;BME280;56128;37.534;-122.308;2024-03-08T12:12:49;101932.28;;;4.54;100.00
69058;BME280;56128;37.534;-122.308;2024-03-08T12:15:18;101927.00;;;4.53;100.00
69058;BME280;56128;37.534;-122.308;2024-03-08T12:17:47;101933.25;;;4.52;100.00
69058;BME280;56128;37.534;-122.308;2024-03-08T12:20:27;101936.81;;;4.51;100.00
69058;BME280;56128;37.534;-122.308;2024-03-08T12:22:57;101935.19;;;4.47;100.00
69058;BME280;56128;37.534;-122.308;2024-03-08T12:25:31;101936.03;;;4.47;100.00
69058;BME280;56128;37.534;-122.308;2024-03-08T12:28:08;101942.19;;;4.48;100.00
69058;BME280;56128;37.534;-122.308;2024-03-08T12:30:50;101935.97;;;4.49;100.00
69058;BME280;56128;37.534;-122.308;2024-03-08T12:33:19;101944.03;;;4.46;100.00